KWJF/WJF METAR and TAF weather

Enter ICAO airport designator
Station Type Date Time Source
KWJF METAR 2021/10/20 06:56 UTC NOAA

KWJF 200656Z AUTO 24005KT 10SM CLR 09/01 A3008 RMK AO2 SLP185 T00940006


Station Type Date Time Source
KWJF Decoded METAR 2021/10/20 06:56 UTC NOAA

LANCASTER FOX AIRFIELD, CA, United States (KWJF) 34-44N 118-13W
Oct 20, 2021 - 02:56 AM EDT / 2021.10.20 0656 UTC
Wind: from the WSW (240 degrees) at 6 MPH (5 KT):0
Visibility: 10 mile(s):0
Sky conditions: clear
Temperature: 48.9 F (9.4 C)
Dew Point: 33.1 F (0.6 C)
Relative Humidity: 54%
Pressure (altimeter): 30.08 in. Hg (1018 hPa)
ob: KWJF 200656Z AUTO 24005KT 10SM CLR 09/01 A3008 RMK AO2 SLP185 T00940006
cycle: 7

Station Type Date Time Source
KWJF TAF 2021/10/20 06:33 UTC NOAA

TAF KWJF 200531Z 2006/2106 20008KT P6SM SKC
FM201000 VRB03KT P6SM SKC
FM202200 26006KT P6SM SKC
FM210400 VRB03KT P6SM SCT250

Example: see airport list